Time;durP1;ratioP1;P1;durP2;ratioP2;P2;SDS_P1;SDS_P2;PMS_P1;PMS_P2;Temp;Humidity;BMP_temperature;BMP_pressure;BME280_temperature;BME280_humidity;BME280_pressure;Samples;Min_cycle;Max_cycle;Signal;HPM_P1;HPM_P2
2023/02/06 00:01:45;;;;;;;4.93;2.17;;;20.60;59.10;;;;;;4972844;28;96205;-85
2023/02/06 00:04:12;;;;;;;7.60;2.63;;;20.60;59.10;;;;;;4974935;28;94187;-85
2023/02/06 00:06:37;;;;;;;5.70;2.30;;;20.60;59.30;;;;;;4975199;28;92202;-85
2023/02/06 00:09:04;;;;;;;5.85;2.60;;;20.60;59.20;;;;;;4974986;28;92303;-85
2023/02/06 00:11:30;;;;;;;4.53;1.75;;;20.50;59.10;;;;;;4990907;28;96818;-85
2023/02/06 00:13:55;;;;;;;4.50;2.13;;;20.50;59.10;;;;;;4973530;28;97286;-85
2023/02/06 00:16:27;;;;;;;6.55;2.20;;;20.50;59.30;;;;;;4975026;28;92480;-85
2023/02/06 00:18:54;;;;;;;5.75;2.30;;;20.50;59.30;;;;;;4975180;28;91879;-86
2023/02/06 00:21:23;;;;;;;5.50;2.47;;;20.50;59.20;;;;;;4974675;28;94186;-85
2023/02/06 00:31:55;;;;;;;3.90;1.48;;;20.40;59.10;;;;;;4947371;28;92826;-84
2023/02/06 00:34:20;;;;;;;3.97;1.75;;;20.40;59.10;;;;;;4974854;28;93140;-84
2023/02/06 00:36:46;;;;;;;5.13;2.17;;;20.40;59.00;;;;;;4974559;28;94092;-84
2023/02/06 00:39:11;;;;;;;4.43;1.92;;;20.40;59.10;;;;;;4975161;28;92490;-85
2023/02/06 00:41:37;;;;;;;5.05;2.47;;;20.40;59.10;;;;;;4975166;28;92488;-85
2023/02/06 00:44:03;;;;;;;5.40;2.10;;;20.40;59.10;;;;;;4974694;28;93407;-84
2023/02/06 00:46:28;;;;;;;6.30;2.55;;;20.30;59.00;;;;;;4963881;28;93207;-85
2023/02/06 00:48:54;;;;;;;8.18;2.70;;;20.30;59.20;;;;;;4975084;28;92554;-84
2023/02/06 00:51:25;;;;;;;4.38;2.20;;;20.30;59.10;;;;;;4966150;28;92446;-85
2023/02/06 00:53:51;;;;;;;5.45;2.30;;;20.30;59.10;;;;;;4974929;28;94744;-84
2023/02/06 00:56:16;;;;;;;4.90;2.10;;;20.20;59.20;;;;;;4974062;28;93905;-85
2023/02/06 00:58:42;;;;;;;4.03;2.00;;;20.20;59.10;;;;;;4974508;28;92404;-85
2023/02/06 01:01:10;;;;;;;6.03;2.20;;;20.30;59.20;;;;;;4974831;28;92765;-84
2023/02/06 01:13:42;;;;;;;5.57;2.20;;;20.20;59.00;;;;;;4973666;28;91890;-84
2023/02/06 01:16:09;;;;;;;3.97;1.90;;;20.20;59.10;;;;;;4974343;28;92923;-85
2023/02/06 01:18:36;;;;;;;5.07;1.80;;;20.20;59.00;;;;;;4973898;28;93249;-85
2023/02/06 01:21:05;;;;;;;4.90;2.08;;;20.20;59.00;;;;;;4973630;28;93717;-85
2023/02/06 01:23:31;;;;;;;5.78;2.05;;;20.20;59.10;;;;;;4974672;28;91851;-85
2023/02/06 01:25:57;;;;;;;5.68;2.20;;;20.10;59.10;;;;;;4973881;28;93692;-85
2023/02/06 01:28:22;;;;;;;5.80;2.05;;;20.10;59.00;;;;;;4974863;28;93034;-84
2023/02/06 01:30:48;;;;;;;3.95;1.60;;;20.10;59.10;;;;;;4972989;28;92081;-84
2023/02/06 01:33:13;;;;;;;3.05;1.52;;;20.10;59.00;;;;;;4972398;28;92227;-85
2023/02/06 01:35:39;;;;;;;4.80;2.10;;;20.10;58.90;;;;;;4973452;28;93650;-84
2023/02/06 01:38:07;;;;;;;4.05;2.05;;;20.10;58.90;;;;;;4972454;28;93348;-84
2023/02/06 01:40:32;;;;;;;5.50;2.22;;;20.10;58.70;;;;;;4972619;28;92535;-85
2023/02/06 01:42:58;;;;;;;3.53;1.88;;;20.10;58.80;;;;;;4959590;28;92733;-84
2023/02/06 01:45:38;;;;;;;3.97;1.77;;;20.10;58.90;;;;;;4972955;28;94203;-85
2023/02/06 01:48:09;;;;;;;4.45;1.75;;;20.00;58.80;;;;;;4963716;28;94205;-84
2023/02/06 01:50:37;;;;;;;4.40;1.63;;;20.00;58.90;;;;;;4974264;28;92485;-84
2023/02/06 01:53:05;;;;;;;4.80;1.92;;;20.00;58.70;;;;;;4974242;28;91942;-84
2023/02/06 01:55:31;;;;;;;5.45;2.03;;;20.00;58.80;;;;;;4973780;28;94238;-84
2023/02/06 01:57:56;;;;;;;3.63;1.60;;;20.00;58.90;;;;;;4973952;28;93127;-84
2023/02/06 02:00:41;;;;;;;4.13;2.03;;;20.00;58.80;;;;;;4964274;28;92472;-84
2023/02/06 02:03:07;;;;;;;4.82;1.80;;;20.00;58.80;;;;;;4972958;28;91964;-84
2023/02/06 02:05:33;;;;;;;5.50;1.75;;;20.00;58.90;;;;;;4973962;28;92882;-85
2023/02/06 02:08:15;;;;;;;3.83;1.70;;;20.00;59.00;;;;;;4973764;28;93825;-84
2023/02/06 02:10:41;;;;;;;4.35;2.00;;;20.00;58.90;;;;;;4972739;28;93161;-84
2023/02/06 02:13:06;;;;;;;5.93;2.05;;;19.90;58.70;;;;;;4973092;28;92555;-84
2023/02/06 02:15:47;;;;;;;4.63;1.90;;;20.00;58.80;;;;;;4972009;28;97373;-84
2023/02/06 02:18:25;;;;;;;4.10;1.70;;;19.90;58.70;;;;;;4971545;28;93316;-85
2023/02/06 02:21:23;;;;;;;5.70;1.92;;;19.90;59.00;;;;;;4974335;28;92551;-84
2023/02/06 02:24:12;;;;;;;4.35;1.90;;;19.90;58.80;;;;;;4955147;28;92118;-84
2023/02/06 02:26:48;;;;;;;5.07;1.95;;;19.90;58.60;;;;;;4938695;28;97166;-84
2023/02/06 02:29:57;;;;;;;3.50;1.80;;;19.90;58.60;;;;;;4954267;28;96355;-84
2023/02/06 02:32:27;;;;;;;4.20;2.13;;;19.90;58.60;;;;;;4914909;28;92489;-85
2023/02/06 02:34:59;;;;;;;4.38;2.08;;;19.90;58.60;;;;;;4916077;28;92965;-84
2023/02/06 02:37:27;;;;;;;4.10;1.77;;;19.90;58.60;;;;;;4915255;28;94676;-85
2023/02/06 02:40:20;;;;;;;3.38;1.77;;;19.90;58.40;;;;;;4915341;28;95116;-84
2023/02/06 02:43:13;;;;;;;3.58;1.55;;;19.90;58.50;;;;;;4915349;28;92778;-85
2023/02/06 02:46:11;;;;;;;3.70;2.03;;;19.80;58.40;;;;;;4915532;28;92052;-85
2023/02/06 02:48:41;;;;;;;3.60;1.83;;;19.80;58.50;;;;;;4847176;29;93313;-84
2023/02/06 02:51:08;;;;;;;3.97;1.77;;;19.80;59.10;;;;;;4841221;29;93350;-85
2023/02/06 03:00:25;;;;;;;5.47;2.30;;;19.80;58.60;;;;;;4832396;29;92853;-85
2023/02/06 03:02:53;;;;;;;4.28;1.70;;;19.80;58.80;;;;;;4830610;29;93999;-84
2023/02/06 03:05:23;;;;;;;4.50;1.80;;;19.70;58.70;;;;;;4830202;29;93440;-85
2023/02/06 03:07:54;;;;;;;4.05;2.22;;;19.70;58.60;;;;;;4830231;28;92629;-84
2023/02/06 03:10:42;;;;;;;5.90;1.98;;;19.70;58.60;;;;;;4913323;28;93238;-84
2023/02/06 03:13:32;;;;;;;3.35;1.58;;;19.70;58.60;;;;;;4914438;28;92577;-84
2023/02/06 03:16:19;;;;;;;3.50;1.48;;;19.70;58.80;;;;;;4914674;28;92403;-85
2023/02/06 03:19:03;;;;;;;4.05;1.95;;;19.70;58.40;;;;;;4914773;28;92540;-84
2023/02/06 03:21:30;;;;;;;3.65;2.10;;;19.70;58.50;;;;;;4914918;28;94149;-84
2023/02/06 03:23:59;;;;;;;5.05;1.92;;;19.70;58.60;;;;;;4914860;28;92795;-84
2023/02/06 03:26:27;;;;;;;3.38;1.67;;;19.70;58.40;;;;;;4961674;28;92754;-84
2023/02/06 03:28:57;;;;;;;4.60;1.67;;;19.70;58.40;;;;;;4975955;28;92618;-84
2023/02/06 03:31:39;;;;;;;4.93;1.88;;;19.70;58.50;;;;;;4973911;28;97517;-84
2023/02/06 03:34:14;;;;;;;6.00;2.10;;;19.70;58.40;;;;;;4974306;28;94334;-84
2023/02/06 03:36:40;;;;;;;3.45;1.50;;;19.70;58.40;;;;;;4975971;28;92016;-85
2023/02/06 03:39:05;;;;;;;3.35;1.70;;;19.60;58.40;;;;;;4974926;28;92767;-85
2023/02/06 03:41:35;;;;;;;3.85;1.70;;;19.60;58.40;;;;;;4991140;28;96931;-84
2023/02/06 03:44:03;;;;;;;3.80;1.40;;;19.60;58.40;;;;;;4974557;28;93774;-85
2023/02/06 03:46:31;;;;;;;3.53;1.77;;;19.60;58.60;;;;;;4975629;28;92663;-85
2023/02/06 03:49:00;;;;;;;4.60;1.90;;;19.60;58.40;;;;;;4976128;28;91881;-84
2023/02/06 03:51:29;;;;;;;;;;;19.60;58.40;;;;;;4975610;28;93940;-84
2023/02/06 03:54:15;;;;;;;4.75;2.05;;;19.60;58.30;;;;;;4977115;28;92361;-84
2023/02/06 03:57:10;;;;;;;3.10;1.45;;;19.60;58.30;;;;;;4976283;28;93484;-84
2023/02/06 03:59:35;;;;;;;3.22;1.70;;;19.60;58.30;;;;;;4972616;28;92649;-84
2023/02/06 04:02:04;;;;;;;2.88;1.35;;;19.60;58.30;;;;;;4963772;28;96308;-84
2023/02/06 04:04:35;;;;;;;3.80;1.60;;;19.50;58.40;;;;;;4972356;28;92977;-84
2023/02/06 04:07:22;;;;;;;4.53;1.95;;;19.50;58.30;;;;;;4972850;28;92115;-84
2023/02/06 04:09:47;;;;;;;3.78;1.58;;;19.50;58.40;;;;;;4972148;28;92129;-84
2023/02/06 04:12:14;;;;;;;3.40;1.90;;;19.50;58.30;;;;;;4971892;28;96936;-85
2023/02/06 04:14:40;;;;;;;3.35;1.52;;;19.50;58.30;;;;;;4973739;28;93455;-84
2023/02/06 04:39:00;;;;;;;3.97;1.58;;;19.40;58.30;;;;;;4945927;28;92246;-84
2023/02/06 04:41:25;;;;;;;3.38;1.65;;;19.40;58.30;;;;;;4974671;28;97898;-84
2023/02/06 04:43:51;;;;;;;3.83;1.70;;;19.40;58.30;;;;;;4974418;28;92057;-84
2023/02/06 04:46:17;;;;;;;3.35;1.23;;;19.40;58.30;;;;;;4989645;28;91886;-84
2023/02/06 04:48:42;;;;;;;3.58;1.60;;;19.40;58.20;;;;;;4973898;28;92677;-84
2023/02/06 04:51:08;;;;;;;3.30;1.52;;;19.40;58.30;;;;;;4974609;28;93215;-84
2023/02/06 04:53:34;;;;;;;2.70;1.42;;;19.40;58.20;;;;;;4975070;28;93429;-84
2023/02/06 04:56:08;;;;;;;3.00;1.30;;;19.40;58.20;;;;;;4974485;28;92227;-84
2023/02/06 04:58:34;;;;;;;4.30;1.58;;;19.40;58.20;;;;;;4974177;28;94109;-84
2023/02/06 05:01:00;;;;;;;4.18;1.67;;;19.30;58.30;;;;;;4973906;28;92781;-84
2023/02/06 05:03:28;;;;;;;4.90;1.70;;;19.30;58.10;;;;;;4989281;28;92153;-84
2023/02/06 05:05:55;;;;;;;4.03;1.70;;;19.30;58.10;;;;;;4974448;28;92466;-84
2023/02/06 05:08:21;;;;;;;3.08;1.40;;;19.30;58.40;;;;;;4974449;28;94031;-84
2023/02/06 05:10:46;;;;;;;3.72;1.58;;;19.30;58.40;;;;;;4973528;28;92919;-85
2023/02/06 05:13:13;;;;;;;3.50;1.60;;;19.30;58.50;;;;;;4974437;28;92931;-85
2023/02/06 05:15:38;;;;;;;3.58;1.60;;;19.30;58.40;;;;;;4974372;28;91984;-84
2023/02/06 05:18:05;;;;;;;3.10;1.55;;;19.30;58.20;;;;;;4973333;28;94827;-84
2023/02/06 05:20:31;;;;;;;3.22;1.23;;;19.30;58.30;;;;;;4974538;28;93428;-84
2023/02/06 05:23:15;;;;;;;2.55;1.42;;;19.30;58.30;;;;;;4973972;28;92148;-84
2023/02/06 05:25:40;;;;;;;4.03;1.63;;;19.30;58.30;;;;;;4989153;28;92136;-84
2023/02/06 05:28:06;;;;;;;2.97;1.30;;;19.30;58.40;;;;;;4973673;28;93440;-84
2023/02/06 05:30:34;;;;;;;2.70;1.40;;;19.30;58.40;;;;;;4973761;28;92575;-85
2023/02/06 05:33:00;;;;;;;2.60;1.43;;;19.20;58.40;;;;;;4973996;28;92563;-84
2023/02/06 05:35:26;;;;;;;4.90;1.90;;;19.20;58.30;;;;;;4975329;28;91899;-84
2023/02/06 05:37:52;;;;;;;2.55;1.30;;;19.20;58.30;;;;;;4973398;28;98374;-84
2023/02/06 05:40:18;;;;;;;4.03;1.83;;;19.20;58.40;;;;;;4973595;28;93888;-84
2023/02/06 05:42:43;;;;;;;3.47;1.98;;;19.20;58.30;;;;;;4973879;28;92994;-84
2023/02/06 05:45:09;;;;;;;2.30;1.45;;;19.20;58.20;;;;;;4974421;28;92471;-84
2023/02/06 05:47:35;;;;;;;2.65;1.50;;;19.20;58.30;;;;;;4974611;28;93305;-84
2023/02/06 05:50:00;;;;;;;3.53;1.35;;;19.20;58.30;;;;;;4973111;28;92844;-84
2023/02/06 05:52:26;;;;;;;2.40;1.35;;;19.20;58.30;;;;;;4972093;28;92643;-84
2023/02/06 05:54:51;;;;;;;2.47;1.55;;;19.20;58.30;;;;;;4974445;28;92339;-84
2023/02/06 05:57:17;;;;;;;3.15;1.50;;;19.20;58.40;;;;;;4974506;28;100617;-84
2023/02/06 06:03:13;;;;;;;5.88;1.83;;;19.10;58.20;;;;;;4977562;28;92485;-84
2023/02/06 06:05:39;;;;;;;2.25;1.20;;;19.10;58.30;;;;;;4978014;28;92508;-84
2023/02/06 06:08:05;;;;;;;4.47;1.73;;;19.10;58.20;;;;;;4983261;28;97471;-83
2023/02/06 06:10:31;;;;;;;6.00;1.90;;;19.30;56.60;;;;;;4976516;28;94052;-83
2023/02/06 06:12:58;;;;;;;2.90;1.75;;;19.30;55.10;;;;;;4976901;28;92580;-83
2023/02/06 06:15:26;;;;;;;3.03;1.65;;;19.30;56.60;;;;;;4976390;28;92578;-83
2023/02/06 06:17:52;;;;;;;5.18;2.05;;;19.30;56.50;;;;;;4977501;28;93117;-83
2023/02/06 06:20:18;;;;;;;4.10;1.58;;;19.30;56.50;;;;;;4977329;28;97630;-84
2023/02/06 06:22:44;;;;;;;4.03;1.80;;;19.30;56.70;;;;;;4977532;28;92035;-84
2023/02/06 06:25:09;;;;;;;3.17;1.83;;;19.20;56.70;;;;;;4977293;28;91975;-83
2023/02/06 06:27:35;;;;;;;3.67;1.83;;;19.20;56.70;;;;;;4976254;28;93273;-84
2023/02/06 06:30:01;;;;;;;3.80;1.73;;;19.20;56.80;;;;;;4974807;28;96685;-84
2023/02/06 06:32:26;;;;;;;4.22;2.13;;;19.20;56.70;;;;;;4977305;28;92953;-84
2023/02/06 06:34:52;;;;;;;7.72;1.75;;;19.10;56.70;;;;;;4974536;28;92135;-85
2023/02/06 06:37:17;;;;;;;5.00;1.60;;;19.20;56.40;;;;;;4976448;28;93147;-86
2023/02/06 06:39:43;;;;;;;8.30;2.20;;;19.20;56.70;;;;;;4976250;28;93211;-85
2023/02/06 06:45:49;;;;;;;5.28;2.08;;;19.10;56.20;;;;;;4976043;28;92477;-85
2023/02/06 06:48:15;;;;;;;4.38;1.50;;;19.20;56.70;;;;;;4976307;28;93340;-87
2023/02/06 06:50:40;;;;;;;8.00;1.90;;;19.40;56.80;;;;;;4976724;28;92363;-87
2023/02/06 06:53:06;;;;;;;4.97;1.88;;;19.50;56.70;;;;;;4975566;28;92460;-86
2023/02/06 06:55:32;;;;;;;5.13;1.73;;;19.60;56.50;;;;;;4991225;28;92365;-87
2023/02/06 06:57:57;;;;;;;9.90;2.03;;;19.80;56.70;;;;;;4990775;28;97768;-86
2023/02/06 07:03:51;;;;;;;5.90;2.10;;;20.10;56.30;;;;;;4976641;28;92510;-87
2023/02/06 07:06:16;;;;;;;4.05;1.95;;;20.20;56.10;;;;;;4973904;28;92618;-86
2023/02/06 07:08:42;;;;;;;4.18;1.90;;;20.20;56.10;;;;;;4974943;28;93275;-86
2023/02/06 07:11:17;;;;;;;2.95;1.30;;;20.30;56.20;;;;;;4962371;28;92555;-87
2023/02/06 07:13:47;;;;;;;3.70;1.85;;;20.30;56.10;;;;;;4976231;28;92381;-85
2023/02/06 07:16:13;;;;;;;3.15;1.52;;;20.30;56.10;;;;;;4965491;28;91831;-85
2023/02/06 07:18:40;;;;;;;4.95;2.20;;;20.20;56.00;;;;;;4975679;28;92925;-86
2023/02/06 07:21:14;;;;;;;3.13;1.55;;;20.20;55.90;;;;;;4975816;28;92885;-86
2023/02/06 07:23:41;;;;;;;3.92;1.60;;;20.10;56.10;;;;;;4976640;28;93427;-87
2023/02/06 07:26:06;;;;;;;5.00;1.63;;;20.10;56.20;;;;;;4974906;28;91845;-86
2023/02/06 07:28:33;;;;;;;2.78;1.75;;;20.00;56.50;;;;;;4975293;28;92615;-86
2023/02/06 07:31:00;;;;;;;2.95;1.45;;;20.00;56.70;;;;;;4974795;28;92557;-86
2023/02/06 07:33:25;;;;;;;6.20;1.92;;;19.90;56.70;;;;;;4975831;28;92257;-86
2023/02/06 07:35:51;;;;;;;4.68;1.80;;;20.00;56.50;;;;;;4976117;28;92799;-86
2023/02/06 07:38:17;;;;;;;5.28;2.40;;;19.90;56.40;;;;;;4975680;28;93479;-86
2023/02/06 07:40:42;;;;;;;4.38;1.70;;;19.90;56.40;;;;;;4975618;28;93258;-87
2023/02/06 07:43:08;;;;;;;5.60;2.42;;;19.90;56.50;;;;;;4976495;28;92106;-87
2023/02/06 07:45:34;;;;;;;5.20;1.88;;;19.90;56.20;;;;;;4976915;28;92307;-85
2023/02/06 07:48:01;;;;;;;4.75;1.90;;;19.90;56.50;;;;;;4975314;28;94077;-86
2023/02/06 07:50:32;;;;;;;5.50;2.53;;;19.90;56.70;;;;;;4976878;28;94045;-86
2023/02/06 07:53:01;;;;;;;10.30;2.88;;;19.90;56.70;;;;;;4977239;28;92345;-86
2023/02/06 07:55:27;;;;;;;6.05;2.45;;;20.00;55.60;;;;;;4975864;28;92451;-85
2023/02/06 07:57:53;;;;;;;7.72;2.42;;;20.00;55.70;;;;;;4975462;28;93600;-86
2023/02/06 08:00:19;;;;;;;6.75;2.10;;;20.00;56.20;;;;;;4975601;28;92938;-86
2023/02/06 08:02:45;;;;;;;7.63;2.55;;;20.10;56.10;;;;;;4976487;28;92033;-85
2023/02/06 08:05:10;;;;;;;6.10;2.05;;;20.10;56.20;;;;;;4974290;28;91754;-85
2023/02/06 08:07:36;;;;;;;5.85;2.05;;;20.10;56.40;;;;;;4964004;28;93836;-86
2023/02/06 08:10:02;;;;;;;6.55;2.30;;;20.10;56.60;;;;;;4974796;28;92227;-86
2023/02/06 08:12:31;;;;;;;6.25;2.20;;;20.00;56.70;;;;;;4962339;28;93543;-86
2023/02/06 08:14:56;;;;;;;5.78;2.20;;;20.00;56.90;;;;;;4974204;28;92544;-85
2023/02/06 08:17:22;;;;;;;5.05;1.80;;;20.00;57.10;;;;;;4971351;28;95528;-85
2023/02/06 08:19:48;;;;;;;4.15;1.88;;;19.90;57.20;;;;;;4960150;28;92902;-85
2023/02/06 08:22:13;;;;;;;5.55;1.88;;;19.90;57.30;;;;;;4986793;28;92241;-86
2023/02/06 08:24:39;;;;;;;4.18;1.77;;;19.90;57.30;;;;;;4972125;28;92471;-85
2023/02/06 08:27:05;;;;;;;3.65;1.92;;;19.90;57.20;;;;;;4973987;28;93260;-86
2023/02/06 08:29:32;;;;;;;8.60;2.20;;;19.80;57.40;;;;;;4976256;28;93802;-86
2023/02/06 08:31:57;;;;;;;9.05;2.38;;;20.00;57.50;;;;;;4991150;28;92438;-86
2023/02/06 08:34:23;;;;;;;4.55;1.95;;;20.00;57.80;;;;;;4974902;28;92401;-85
2023/02/06 08:36:58;;;;;;;9.13;2.85;;;20.10;57.20;;;;;;4971745;28;96430;-85
2023/02/06 08:39:24;;;;;;;8.25;2.50;;;20.10;57.30;;;;;;4973370;28;93959;-87
2023/02/06 08:41:50;;;;;;;8.43;2.17;;;20.20;57.10;;;;;;4974604;28;92249;-86
2023/02/06 08:44:17;;;;;;;7.55;1.80;;;20.30;57.10;;;;;;4974298;28;92520;-87
2023/02/06 08:46:44;;;;;;;6.55;2.13;;;20.40;56.90;;;;;;4974216;28;93776;-87
2023/02/06 08:49:15;;;;;;;8.57;2.00;;;20.50;56.80;;;;;;4974769;28;93290;-87
2023/02/06 08:51:44;;;;;;;10.25;2.70;;;20.60;56.60;;;;;;4974251;28;92239;-86
2023/02/06 08:54:18;;;;;;;7.07;2.53;;;20.70;56.50;;;;;;4974725;28;91586;-87
2023/02/06 08:56:44;;;;;;;7.13;2.40;;;20.70;56.50;;;;;;4975740;28;93259;-86
2023/02/06 08:59:12;;;;;;;8.30;2.70;;;20.80;56.30;;;;;;4973860;28;93912;-87
2023/02/06 09:01:38;;;;;;;18.05;5.93;;;20.80;56.20;;;;;;4972830;28;93354;-86
2023/02/06 09:04:15;;;;;;;21.38;4.35;;;20.70;55.40;;;;;;4974995;28;92536;-87
2023/02/06 09:06:43;;;;;;;13.15;4.20;;;20.60;55.70;;;;;;4974176;28;93563;-87
2023/02/06 09:09:10;;;;;;;16.40;5.30;;;20.60;56.40;;;;;;4963350;28;92963;-86
2023/02/06 09:11:36;;;;;;;17.23;4.55;;;20.50;56.90;;;;;;4973922;28;92265;-86
2023/02/06 09:14:04;;;;;;;20.30;4.65;;;20.40;57.30;;;;;;4973976;28;92673;-85
2023/02/06 09:20:04;;;;;;;14.40;4.30;;;20.30;57.90;;;;;;4974409;28;92544;-85
2023/02/06 09:22:30;;;;;;;16.77;5.22;;;20.30;58.20;;;;;;4975098;28;92333;-86
2023/02/06 09:24:56;;;;;;;14.52;5.03;;;20.20;58.70;;;;;;4975225;28;92507;-87
2023/02/06 09:27:21;;;;;;;16.67;4.90;;;20.30;57.90;;;;;;4973580;28;94576;-89
2023/02/06 09:29:47;;;;;;;18.38;4.82;;;20.20;58.50;;;;;;4973397;28;97498;-86
2023/02/06 09:39:04;;;;;;;14.05;4.25;;;20.40;58.60;;;;;;4973979;28;96707;-85
2023/02/06 09:41:55;;;;;;;14.45;4.45;;;20.50;58.20;;;;;;4974810;28;92819;-86
2023/02/06 09:44:27;;;;;;;14.02;4.47;;;20.50;58.30;;;;;;4961406;28;92521;-86
2023/02/06 09:47:17;;;;;;;16.77;5.43;;;20.60;58.40;;;;;;4962161;28;91711;-86
2023/02/06 09:59:55;;;;;;;13.77;4.60;;;20.50;59.20;;;;;;4962139;28;92544;-85
2023/02/06 10:02:36;;;;;;;19.10;5.85;;;20.60;59.70;;;;;;4964650;28;93973;-84
2023/02/06 10:05:33;;;;;;;17.25;5.38;;;20.50;60.20;;;;;;4961777;28;93283;-84
2023/02/06 10:08:36;;;;;;;16.80;5.55;;;20.60;60.10;;;;;;4874785;28;93715;-83
2023/02/06 10:11:14;;;;;;;14.65;5.20;;;20.60;60.40;;;;;;4875272;28;92537;-84
2023/02/06 10:13:53;;;;;;;21.80;6.13;;;20.70;59.90;;;;;;4874940;28;92507;-84
2023/02/06 10:16:44;;;;;;;18.05;5.63;;;20.60;60.40;;;;;;4875703;28;93395;-84
2023/02/06 10:19:32;;;;;;;18.25;5.50;;;20.70;61.40;;;;;;4875276;28;92537;-84
2023/02/06 10:22:19;;;;;;;15.20;5.50;;;20.70;61.10;;;;;;4889574;28;92145;-84
2023/02/06 10:25:28;;;;;;;15.48;5.50;;;20.70;61.00;;;;;;4893620;28;94059;-85
2023/02/06 10:27:58;;;;;;;16.10;5.20;;;20.80;60.80;;;;;;4894196;28;92918;-85
2023/02/06 10:31:01;;;;;;;;;;;20.80;60.80;;;;;;4894919;28;91983;-85
2023/02/06 10:34:04;;;;;;;13.90;4.60;;;20.90;60.90;;;;;;4859161;29;99854;-84
2023/02/06 10:36:50;;;;;;;20.20;6.35;;;20.90;60.90;;;;;;4856188;28;92930;-85
2023/02/06 10:39:44;;;;;;;16.60;5.43;;;20.90;61.10;;;;;;4855224;29;94462;-87
2023/02/06 10:42:34;;;;;;;16.05;5.57;;;20.90;61.30;;;;;;4855824;29;92390;-86
2023/02/06 10:45:10;;;;;;;19.58;5.85;;;20.90;61.20;;;;;;4898476;28;91963;-87
2023/02/06 10:51:28;;;;;;;19.17;5.65;;;20.80;61.20;;;;;;4934389;28;97384;-87
2023/02/06 10:54:01;;;;;;;19.42;5.30;;;20.80;61.40;;;;;;4934996;28;93670;-87
2023/02/06 10:56:32;;;;;;;18.88;5.20;;;20.90;61.30;;;;;;4935194;28;92083;-85
2023/02/06 10:59:12;;;;;;;13.48;5.03;;;20.90;61.30;;;;;;4935065;28;93329;-88
2023/02/06 11:01:39;;;;;;;18.73;5.32;;;20.90;61.30;;;;;;4934788;28;93469;-85
2023/02/06 11:04:28;;;;;;;20.00;5.60;;;21.10;61.30;;;;;;4952324;28;92366;-85
2023/02/06 11:06:59;;;;;;;14.80;5.30;;;21.10;61.10;;;;;;4975977;28;92315;-87
2023/02/06 11:09:25;;;;;;;14.80;5.13;;;21.20;60.90;;;;;;4976363;28;93543;-88
2023/02/06 11:18:45;;;;;;;14.38;4.65;;;21.50;60.20;;;;;;4975489;28;92019;-86
2023/02/06 11:21:13;;;;;;;12.00;4.75;;;21.50;60.40;;;;;;4975231;28;94573;-87
2023/02/06 11:23:39;;;;;;;15.52;5.60;;;21.50;60.50;;;;;;4976903;28;93867;-88
2023/02/06 11:26:15;;;;;;;13.52;5.13;;;21.40;59.30;;;;;;4976589;28;92644;-87
2023/02/06 11:28:57;;;;;;;14.43;4.25;;;21.30;58.80;;;;;;4975642;28;92721;-84
2023/02/06 11:31:45;;;;;;;16.80;4.85;;;21.30;59.50;;;;;;4975575;28;93343;-86
2023/02/06 11:34:22;;;;;;;10.73;4.40;;;21.30;59.60;;;;;;4978681;28;93368;-86
2023/02/06 11:36:52;;;;;;;18.23;5.35;;;21.30;59.10;;;;;;4975825;28;92083;-85
2023/02/06 11:46:27;;;;;;;16.77;5.15;;;21.10;59.10;;;;;;4975351;28;92227;-85
2023/02/06 11:48:53;;;;;;;17.02;5.13;;;21.00;60.20;;;;;;4953073;28;92958;-85
2023/02/06 11:51:19;;;;;;;14.55;5.32;;;21.10;60.80;;;;;;4953495;28;92427;-83
2023/02/06 11:54:00;;;;;;;15.35;4.63;;;21.00;61.10;;;;;;4954311;28;93794;-86
2023/02/06 11:57:16;;;;;;;14.05;4.85;;;21.00;61.20;;;;;;4953128;28;97154;-85
2023/02/06 11:59:57;;;;;;;17.83;5.50;;;21.00;59.10;;;;;;4934612;28;92411;-86
2023/02/06 12:02:30;;;;;;;13.73;4.55;;;21.00;59.70;;;;;;4933970;28;92759;-85
2023/02/06 12:05:05;;;;;;;14.77;4.72;;;21.00;59.50;;;;;;4933657;28;93882;-85
2023/02/06 12:08:01;;;;;;;14.55;4.50;;;21.10;59.30;;;;;;4933860;28;93025;-85
2023/02/06 12:10:30;;;;;;;10.52;3.72;;;21.20;59.40;;;;;;4933376;28;91992;-85
2023/02/06 12:13:06;;;;;;;;;;;21.20;59.40;;;;;;4920089;28;92165;-85
2023/02/06 12:15:43;;;;;;;10.88;3.90;;;21.30;59.30;;;;;;4933813;28;93938;-85
2023/02/06 12:18:13;;;;;;;13.07;4.13;;;21.30;59.20;;;;;;4932903;28;93422;-85
2023/02/06 12:20:57;;;;;;;11.52;4.18;;;21.30;59.30;;;;;;4933838;28;92742;-85
2023/02/06 12:23:46;;;;;;;12.27;3.85;;;21.30;59.20;;;;;;4933285;28;92745;-85
2023/02/06 12:26:17;;;;;;;16.37;4.47;;;21.30;59.20;;;;;;4927980;28;97140;-85
2023/02/06 12:32:30;;;;;;;12.15;3.97;;;21.20;59.30;;;;;;4952712;28;92554;-85
2023/02/06 12:35:03;;;;;;;12.55;4.25;;;21.20;59.50;;;;;;4948114;28;92146;-87
2023/02/06 12:37:38;;;;;;;9.60;3.30;;;21.20;59.50;;;;;;4974867;28;92667;-86
2023/02/06 12:40:14;;;;;;;8.77;3.17;;;21.20;59.70;;;;;;4974728;28;93753;-87
2023/02/06 12:42:55;;;;;;;12.93;3.90;;;21.20;59.80;;;;;;4970678;28;93226;-87
2023/02/06 12:45:30;;;;;;;10.00;4.28;;;21.20;59.80;;;;;;4973637;28;92515;-86
2023/02/06 12:48:21;;;;;;;10.90;4.07;;;21.10;59.60;;;;;;4974896;28;93702;-84
2023/02/06 12:51:06;;;;;;;14.18;4.55;;;21.10;59.60;;;;;;4970572;28;97645;-86
2023/02/06 12:53:52;;;;;;;10.13;3.50;;;21.10;59.80;;;;;;4971465;28;92084;-86
2023/02/06 12:56:49;;;;;;;9.65;3.65;;;21.10;59.70;;;;;;4970856;28;92313;-84
2023/02/06 12:59:56;;;;;;;9.80;3.53;;;21.10;59.70;;;;;;4912058;28;94294;-87
2023/02/06 13:02:52;;;;;;;8.80;3.17;;;21.20;59.50;;;;;;4912561;28;96392;-88
2023/02/06 13:05:21;;;;;;;10.77;3.92;;;21.30;59.40;;;;;;4913089;28;92478;-86
2023/02/06 13:14:30;;;;;;;7.43;3.08;;;21.30;58.90;;;;;;4911724;28;92810;-84
2023/02/06 13:17:15;;;;;;;10.30;3.72;;;21.20;58.30;;;;;;4912298;28;92171;-85
2023/02/06 13:19:41;;;;;;;11.90;3.90;;;21.30;57.70;;;;;;4898194;28;92759;-89
2023/02/06 13:22:09;;;;;;;10.25;2.88;;;21.30;58.00;;;;;;4913345;28;96758;-89
2023/02/06 13:28:28;;;;;;;10.70;3.22;;;21.20;58.40;;;;;;4903582;28;92644;-91
2023/02/06 13:31:00;;;;;;;8.55;2.83;;;21.20;58.60;;;;;;4894690;28;91969;-91
2023/02/06 13:33:51;;;;;;;8.27;3.10;;;21.20;58.80;;;;;;4877017;28;96161;-91
2023/02/06 13:36:42;;;;;;;6.55;2.55;;;21.10;58.80;;;;;;4954657;28;93354;-92
2023/02/06 13:39:26;;;;;;;7.38;3.28;;;21.10;58.90;;;;;;4974739;28;93181;-91
2023/02/06 13:41:52;;;;;;;7.25;3.00;;;21.10;58.80;;;;;;4989261;28;92637;-91
2023/02/06 13:44:28;;;;;;;7.63;2.97;;;21.20;58.60;;;;;;4973548;28;97053;-89
2023/02/06 13:47:07;;;;;;;7.13;2.70;;;21.20;58.50;;;;;;4974863;28;92820;-90
2023/02/06 13:50:13;;;;;;;8.82;2.53;;;21.30;58.50;;;;;;5011694;28;92498;-89
2023/02/06 13:52:58;;;;;;;9.77;3.03;;;21.30;58.50;;;;;;5011945;28;92364;-89
2023/02/06 13:55:46;;;;;;;7.05;2.83;;;21.30;58.40;;;;;;5010444;28;96454;-89
2023/02/06 13:58:36;;;;;;;7.50;2.90;;;21.30;58.50;;;;;;5012111;28;93711;-89
2023/02/06 14:04:28;;;;;;;6.78;2.50;;;21.50;58.10;;;;;;5010928;28;92725;-90
2023/02/06 14:07:03;;;;;;;9.43;3.25;;;21.50;58.10;;;;;;5010986;28;95184;-89
2023/02/06 14:10:04;;;;;;;6.78;2.65;;;21.50;58.10;;;;;;4994093;28;94996;-89
2023/02/06 14:12:52;;;;;;;5.38;2.78;;;21.60;57.80;;;;;;5012780;28;92341;-89
2023/02/06 14:15:34;;;;;;;5.70;2.78;;;21.60;57.90;;;;;;5010534;28;92752;-90
2023/02/06 14:18:06;;;;;;;9.70;2.92;;;21.50;57.90;;;;;;5011608;28;94230;-89
2023/02/06 14:20:49;;;;;;;7.15;2.50;;;21.50;57.90;;;;;;4996373;28;92722;-89
2023/02/06 14:23:21;;;;;;;3.95;2.17;;;21.50;57.90;;;;;;4978358;28;92466;-89
2023/02/06 14:26:11;;;;;;;5.93;2.92;;;21.50;58.00;;;;;;4978037;28;91354;-92
2023/02/06 14:28:45;;;;;;;6.82;2.55;;;21.40;58.00;;;;;;4977099;28;93691;-85
2023/02/06 14:32:00;;;;;;;6.65;2.78;;;21.50;58.10;;;;;;4977862;28;92704;-85
2023/02/06 14:34:44;;;;;;;5.55;2.42;;;21.50;57.80;;;;;;4953356;28;93094;-86
2023/02/06 14:49:13;;;;;;;25.63;6.10;;;21.70;57.50;;;;;;4946945;28;92621;-86
2023/02/06 14:51:40;;;;;;;15.52;5.70;;;21.60;56.10;;;;;;4935592;28;92461;-87
2023/02/06 14:54:27;;;;;;;24.88;7.10;;;21.60;55.90;;;;;;4936045;28;94502;-85
2023/02/06 14:56:59;;;;;;;183.73;57.17;;;21.60;55.50;;;;;;4935651;28;93896;-86
2023/02/06 14:59:30;;;;;;;115.13;37.25;;;21.50;53.40;;;;;;4935695;28;92488;-86
2023/02/06 15:02:26;;;;;;;103.60;31.05;;;21.60;53.30;;;;;;4935470;28;91993;-85
2023/02/06 15:04:52;;;;;;;95.22;27.30;;;21.50;53.20;;;;;;4876048;28;94004;-85
2023/02/06 15:07:27;;;;;;;88.68;25.98;;;21.40;53.10;;;;;;4869557;28;97188;-86
2023/02/06 15:10:06;;;;;;;80.68;24.70;;;21.40;53.50;;;;;;4878081;28;92486;-84
2023/02/06 15:12:32;;;;;;;69.57;23.83;;;21.30;53.50;;;;;;4896186;28;92226;-86
2023/02/06 15:15:03;;;;;;;70.93;22.73;;;21.40;54.00;;;;;;4879600;28;96254;-86
2023/02/06 15:24:50;;;;;;;71.38;21.75;;;21.70;55.20;;;;;;4897073;28;91843;-86